createdAt,value
2016-08-24T00:00:50.362Z,0
2016-08-24T00:01:51.067Z,0
2016-08-24T00:02:51.070Z,0
2016-08-24T00:03:51.071Z,0
2016-08-24T00:04:51.066Z,0
2016-08-24T00:05:51.067Z,0
2016-08-24T00:06:50.367Z,0
2016-08-24T00:07:51.068Z,0
2016-08-24T00:08:50.363Z,0
2016-08-24T00:09:51.077Z,0
2016-08-24T00:10:51.071Z,0
2016-08-24T00:11:51.070Z,0
2016-08-24T00:12:50.368Z,0
2016-08-24T00:13:50.367Z,0
2016-08-24T00:14:51.071Z,0
2016-08-24T00:15:51.071Z,0
2016-08-24T00:16:51.072Z,0
2016-08-24T00:17:51.066Z,0
2016-08-24T00:18:51.071Z,0
2016-08-24T00:19:51.070Z,0
2016-08-24T00:20:51.071Z,0
2016-08-24T00:21:51.075Z,0
2016-08-24T00:22:50.368Z,0
2016-08-24T00:23:51.076Z,0
2016-08-24T00:24:50.380Z,0
2016-08-24T00:25:51.075Z,0
2016-08-24T00:26:51.079Z,0
2016-08-24T00:27:51.076Z,0
2016-08-24T00:28:51.079Z,0
2016-08-24T00:29:51.076Z,0
2016-08-24T00:30:51.088Z,0
2016-08-24T00:31:51.076Z,0
2016-08-24T00:32:49.672Z,0
2016-08-24T00:33:51.128Z,0
2016-08-24T00:34:51.075Z,0
2016-08-24T00:35:51.076Z,0
2016-08-24T00:36:51.080Z,0
2016-08-24T00:37:51.076Z,0
2016-08-24T00:38:51.080Z,0
2016-08-24T00:39:50.377Z,0
2016-08-24T00:40:51.080Z,0
2016-08-24T00:41:50.377Z,0
2016-08-24T00:42:51.088Z,0
2016-08-24T00:43:51.081Z,0
2016-08-24T00:44:51.080Z,0
2016-08-24T00:46:03.822Z,0
2016-08-24T00:46:51.085Z,0
2016-08-24T00:47:50.377Z,0
2016-08-24T00:48:50.383Z,0
2016-08-24T00:49:51.097Z,0
2016-08-24T00:50:51.081Z,0
2016-08-24T00:51:51.081Z,0
2016-08-24T00:52:50.377Z,0
2016-08-24T00:53:49.684Z,0
2016-08-24T00:54:51.097Z,0
2016-08-24T00:55:50.377Z,0
2016-08-24T00:56:51.093Z,0
2016-08-24T00:57:50.387Z,0
2016-08-24T00:58:51.084Z,0
2016-08-24T00:59:51.085Z,0
2016-08-24T01:00:50.381Z,0
2016-08-24T01:01:50.389Z,0
2016-08-24T01:02:50.381Z,16
2016-08-24T01:03:51.086Z,16
2016-08-24T01:04:51.086Z,0
2016-08-24T01:05:51.086Z,0
2016-08-24T01:06:49.686Z,0
2016-08-24T01:07:51.093Z,0
2016-08-24T01:08:51.086Z,0
2016-08-24T01:09:51.097Z,0
2016-08-24T01:10:51.102Z,0
2016-08-24T01:11:51.086Z,0
2016-08-24T01:12:49.682Z,0
2016-08-24T01:13:51.102Z,0
2016-08-24T01:14:51.086Z,0
2016-08-24T01:15:51.086Z,0
2016-08-24T01:16:51.090Z,0
2016-08-24T01:17:51.086Z,0
2016-08-24T01:18:51.085Z,0
2016-08-24T01:19:50.390Z,0
2016-08-24T01:20:51.086Z,0
2016-08-24T01:21:51.089Z,0
2016-08-24T01:22:49.682Z,0
2016-08-24T01:23:51.098Z,0
2016-08-24T01:24:51.090Z,0
2016-08-24T01:25:51.090Z,0
2016-08-24T01:26:51.090Z,0
2016-08-24T01:27:51.090Z,0
2016-08-24T01:28:51.090Z,0
2016-08-24T01:29:51.090Z,0
2016-08-24T01:30:51.103Z,0
2016-08-24T01:31:50.386Z,0
2016-08-24T01:32:51.094Z,0
2016-08-24T01:33:51.090Z,0
2016-08-24T01:34:50.390Z,0
2016-08-24T01:35:51.090Z,0
2016-08-24T01:36:51.091Z,0
2016-08-24T01:37:51.091Z,0
2016-08-24T01:38:51.102Z,0
2016-08-24T01:39:51.090Z,0
2016-08-24T01:40:51.090Z,0
2016-08-24T01:41:51.091Z,0
2016-08-24T01:42:50.386Z,0
2016-08-24T01:43:50.385Z,0
2016-08-24T01:44:51.120Z,0
2016-08-24T01:45:49.682Z,0
2016-08-24T01:46:51.091Z,0
2016-08-24T01:47:51.091Z,0
2016-08-24T01:48:51.091Z,0
2016-08-24T01:49:51.091Z,0
2016-08-24T01:50:51.091Z,0
2016-08-24T01:51:51.095Z,0
2016-08-24T01:52:51.103Z,0
2016-08-24T01:53:51.091Z,0
2016-08-24T01:54:51.091Z,0
2016-08-24T01:55:51.090Z,0
2016-08-24T01:56:50.392Z,0
2016-08-24T01:57:51.090Z,0
2016-08-24T01:58:51.091Z,0
2016-08-24T01:59:51.091Z,0
2016-08-24T02:00:51.092Z,0
2016-08-24T02:01:51.091Z,0
2016-08-24T02:02:51.091Z,0
2016-08-24T02:03:51.095Z,0
2016-08-24T02:04:50.388Z,0
2016-08-24T02:05:51.091Z,0
2016-08-24T02:06:51.099Z,0
2016-08-24T02:07:51.095Z,0
2016-08-24T02:08:51.091Z,0
2016-08-24T02:09:51.100Z,0
2016-08-24T02:10:51.103Z,0
2016-08-24T02:11:51.094Z,0
2016-08-24T02:12:48.984Z,0
2016-08-24T02:13:50.396Z,0
2016-08-24T02:14:51.099Z,0
2016-08-24T02:15:49.684Z,0
2016-08-24T02:16:51.096Z,0
2016-08-24T02:17:51.093Z,0
2016-08-24T02:18:51.092Z,0
2016-08-24T02:19:51.092Z,0
2016-08-24T02:20:50.388Z,0
2016-08-24T02:21:51.092Z,0
2016-08-24T02:22:51.088Z,0
2016-08-24T02:23:50.405Z,0
2016-08-24T02:24:51.092Z,0
2016-08-24T02:25:51.096Z,0
2016-08-24T02:26:51.093Z,0
2016-08-24T02:27:51.092Z,0
2016-08-24T02:28:51.098Z,0
2016-08-24T02:29:50.393Z,0
2016-08-24T02:30:51.096Z,0
2016-08-24T02:31:51.108Z,0
2016-08-24T02:32:51.093Z,0
2016-08-24T02:33:50.636Z,0
2016-08-24T02:34:51.089Z,0
2016-08-24T02:35:51.090Z,0
2016-08-24T02:36:49.684Z,0
2016-08-24T02:37:50.385Z,0
2016-08-24T02:38:51.089Z,0
2016-08-24T02:39:51.092Z,0
2016-08-24T02:40:51.089Z,0
2016-08-24T02:41:51.096Z,0
2016-08-24T02:42:51.092Z,0
2016-08-24T02:43:51.089Z,0
2016-08-24T02:44:51.097Z,0
2016-08-24T02:45:51.089Z,0
2016-08-24T02:46:51.097Z,0
2016-08-24T02:47:51.096Z,0
2016-08-24T02:48:50.396Z,0
2016-08-24T02:49:50.392Z,0
2016-08-24T02:50:50.384Z,0
2016-08-24T02:51:51.089Z,0
2016-08-24T02:52:51.085Z,0
2016-08-24T02:53:51.085Z,0
2016-08-24T02:54:51.089Z,0
2016-08-24T02:55:51.090Z,0
2016-08-24T02:56:49.686Z,0
2016-08-24T02:57:51.102Z,0
2016-08-24T02:58:51.089Z,0
2016-08-24T02:59:51.089Z,0
2016-08-24T03:00:50.385Z,0
2016-08-24T03:01:50.400Z,0
2016-08-24T03:02:51.092Z,0
2016-08-24T03:03:51.085Z,0
2016-08-24T03:04:51.084Z,0
2016-08-24T03:05:51.085Z,0
2016-08-24T03:06:51.094Z,0
2016-08-24T03:07:51.086Z,0
2016-08-24T03:08:49.681Z,0
2016-08-24T03:09:51.086Z,0
2016-08-24T03:10:50.378Z,0
2016-08-24T03:11:51.081Z,0
2016-08-24T03:12:51.093Z,0
2016-08-24T03:13:51.082Z,0
2016-08-24T03:14:51.081Z,0
2016-08-24T03:15:51.082Z,0
2016-08-24T03:16:51.082Z,0
2016-08-24T03:17:51.081Z,0
2016-08-24T03:18:51.081Z,0
2016-08-24T03:19:51.098Z,0
2016-08-24T03:20:51.087Z,0
2016-08-24T03:21:50.378Z,0
2016-08-24T03:22:51.078Z,0
2016-08-24T03:23:51.077Z,0
2016-08-24T03:24:51.078Z,0
2016-08-24T03:25:51.078Z,0
2016-08-24T03:26:51.078Z,0
2016-08-24T03:27:51.078Z,0
2016-08-24T03:28:51.090Z,0
2016-08-24T03:29:51.085Z,0
2016-08-24T03:30:51.078Z,0
2016-08-24T03:31:51.077Z,0
2016-08-24T03:32:51.074Z,0
2016-08-24T03:33:50.374Z,0
2016-08-24T03:34:51.074Z,0
2016-08-24T03:35:51.074Z,0
2016-08-24T03:36:51.078Z,0
2016-08-24T03:37:51.074Z,0
2016-08-24T03:38:51.074Z,0
2016-08-24T03:39:50.387Z,0
2016-08-24T03:40:51.075Z,0
2016-08-24T03:41:51.079Z,0
2016-08-24T03:42:50.371Z,0
2016-08-24T03:43:51.071Z,0
2016-08-24T03:44:51.070Z,0
2016-08-24T03:45:51.071Z,0
2016-08-24T03:46:51.075Z,0
2016-08-24T03:47:50.367Z,0
2016-08-24T03:48:51.071Z,0
2016-08-24T03:49:51.075Z,0
2016-08-24T03:50:51.078Z,0
2016-08-24T03:51:51.070Z,0
2016-08-24T03:52:51.070Z,0
2016-08-24T03:53:51.067Z,0
2016-08-24T03:54:51.071Z,0
2016-08-24T03:55:50.363Z,4
2016-08-24T03:56:51.074Z,4
2016-08-24T03:57:51.067Z,0
2016-08-24T03:58:51.067Z,4
2016-08-24T03:59:51.075Z,4
2016-08-24T04:00:51.067Z,4
2016-08-24T04:01:51.071Z,8
2016-08-24T04:02:51.066Z,4
2016-08-24T04:03:51.066Z,4
2016-08-24T04:04:51.063Z,8
2016-08-24T04:05:50.371Z,8
2016-08-24T04:06:51.062Z,12
2016-08-24T04:07:50.363Z,12
2016-08-24T04:08:51.077Z,16
2016-08-24T04:09:50.359Z,16
2016-08-24T04:10:51.063Z,20
2016-08-24T04:11:50.359Z,44
2016-08-24T04:12:51.063Z,44
2016-08-24T04:13:51.064Z,52
2016-08-24T04:14:51.059Z,56
2016-08-24T04:15:51.059Z,48
2016-08-24T04:16:51.060Z,52
2016-08-24T04:17:50.355Z,60
2016-08-24T04:18:51.055Z,84
2016-08-24T04:19:51.055Z,92
2016-08-24T04:20:51.056Z,104
2016-08-24T04:21:51.055Z,100
2016-08-24T04:22:51.060Z,112
2016-08-24T04:23:51.060Z,124
2016-08-24T04:24:51.056Z,132
2016-08-24T04:25:50.352Z,148
2016-08-24T04:26:51.056Z,168
2016-08-24T04:27:51.052Z,180
2016-08-24T04:28:50.348Z,200
2016-08-24T04:29:51.053Z,212
2016-08-24T04:30:51.056Z,236
2016-08-24T04:31:50.348Z,256
2016-08-24T04:32:51.052Z,272
2016-08-24T04:33:50.448Z,296
2016-08-24T04:34:50.352Z,316
2016-08-24T04:35:51.064Z,340
2016-08-24T04:36:51.048Z,364
2016-08-24T04:37:51.048Z,388
2016-08-24T04:38:50.344Z,416
2016-08-24T04:39:50.345Z,440
2016-08-24T04:40:51.048Z,468
2016-08-24T04:41:50.344Z,492
2016-08-24T04:42:50.340Z,528
2016-08-24T04:43:50.340Z,644
2016-08-24T04:44:51.045Z,760
2016-08-24T04:45:51.049Z,836
2016-08-24T04:46:50.340Z,900
2016-08-24T04:47:51.057Z,964
2016-08-24T04:48:51.045Z,1028
2016-08-24T04:49:51.040Z,1092
2016-08-24T04:50:51.049Z,1164
2016-08-24T04:51:50.340Z,1240
2016-08-24T04:52:51.041Z,1308
2016-08-24T04:53:51.042Z,1380
2016-08-24T04:54:50.341Z,1460
2016-08-24T04:55:51.041Z,1540
2016-08-24T04:56:50.337Z,1616
2016-08-24T04:57:51.042Z,1692
2016-08-24T04:58:51.041Z,1768
2016-08-24T04:59:51.048Z,1852
2016-08-24T05:00:50.340Z,1944
2016-08-24T05:01:51.041Z,2040
2016-08-24T05:02:51.042Z,2192
2016-08-24T05:03:50.340Z,2472
2016-08-24T05:04:51.041Z,3032
2016-08-24T05:05:51.045Z,3720
2016-08-24T05:06:51.042Z,4232
2016-08-24T05:07:51.041Z,4400
2016-08-24T05:08:49.633Z,4848
2016-08-24T05:09:51.041Z,5100
2016-08-24T05:10:51.042Z,4848
2016-08-24T05:11:50.337Z,5056
2016-08-24T05:12:49.642Z,5172
2016-08-24T05:13:49.641Z,5356
2016-08-24T05:14:51.046Z,5548
2016-08-24T05:15:50.351Z,5948
2016-08-24T05:16:51.054Z,6272
2016-08-24T05:17:50.353Z,6192
2016-08-24T05:18:50.353Z,6600
2016-08-24T05:19:51.050Z,7052
2016-08-24T05:20:51.054Z,7232
2016-08-24T05:21:51.054Z,7344
2016-08-24T05:22:51.066Z,7684
2016-08-24T05:23:51.058Z,7756
2016-08-24T05:24:51.059Z,8108
2016-08-24T05:25:51.058Z,8696
2016-08-24T05:26:51.063Z,9140
2016-08-24T05:27:51.063Z,9608
2016-08-24T05:28:51.067Z,9812
2016-08-24T05:29:51.067Z,9528
2016-08-24T05:30:51.070Z,9708
2016-08-24T05:31:51.078Z,9912
2016-08-24T05:32:51.075Z,10164
2016-08-24T05:33:51.079Z,10492
2016-08-24T05:34:51.082Z,10944
2016-08-24T05:35:51.083Z,11368
2016-08-24T05:36:50.379Z,11984
2016-08-24T05:37:51.090Z,11716
2016-08-24T05:38:51.090Z,12148
2016-08-24T05:39:51.102Z,12928
2016-08-24T05:40:50.402Z,13260
2016-08-24T05:41:50.395Z,13336
2016-08-24T05:42:51.103Z,13936
2016-08-24T05:43:51.103Z,13872
2016-08-24T05:44:49.703Z,14504
2016-08-24T05:45:50.407Z,14588
2016-08-24T05:46:51.115Z,15232
2016-08-24T05:47:51.132Z,16576
2016-08-24T05:48:50.415Z,15936
2016-08-24T05:49:49.719Z,16896
2016-08-24T05:50:51.131Z,17184
2016-08-24T05:51:51.131Z,17664
2016-08-24T05:52:51.134Z,17664
2016-08-24T05:53:50.436Z,17440
2016-08-24T05:54:51.140Z,18272
2016-08-24T05:55:51.154Z,18656
2016-08-24T05:56:51.157Z,19296
2016-08-24T05:57:51.151Z,19648
2016-08-24T05:58:49.747Z,20288
2016-08-24T05:59:50.472Z,20320
2016-08-24T06:00:51.164Z,20896
2016-08-24T06:01:49.759Z,20544
2016-08-24T06:02:51.171Z,21248
2016-08-24T06:03:49.768Z,22240
2016-08-24T06:04:50.495Z,23008
2016-08-24T06:05:51.183Z,22624
2016-08-24T06:06:51.208Z,23680
2016-08-24T06:07:51.196Z,23808
2016-08-24T06:08:51.199Z,25056
2016-08-24T06:09:51.215Z,25664
2016-08-24T06:10:51.208Z,26176
2016-08-24T06:11:51.223Z,26144
2016-08-24T06:12:51.219Z,24576
2016-08-24T06:13:50.521Z,24416
2016-08-24T06:14:51.228Z,25248
2016-08-24T06:15:50.542Z,25696
2016-08-24T06:16:51.248Z,27200
2016-08-24T06:17:51.245Z,27552
2016-08-24T06:18:51.248Z,27168
2016-08-24T06:19:51.256Z,28288
2016-08-24T06:20:51.260Z,29600
2016-08-24T06:21:51.264Z,29536
2016-08-24T06:22:50.573Z,29152
2016-08-24T06:23:51.279Z,29376
2016-08-24T06:24:51.280Z,29568
2016-08-24T06:25:51.293Z,30304
2016-08-24T06:26:49.884Z,30016
2016-08-24T06:27:51.295Z,30240
2016-08-24T06:28:51.304Z,29728
2016-08-24T06:29:51.308Z,31072
2016-08-24T06:30:50.617Z,31840
2016-08-24T06:31:50.617Z,30272
2016-08-24T06:32:51.328Z,30816
2016-08-24T06:33:50.733Z,28768
2016-08-24T06:34:51.352Z,29888
2016-08-24T06:35:50.649Z,32000
2016-08-24T06:36:51.361Z,32320
2016-08-24T06:37:51.357Z,33408
2016-08-24T06:38:51.373Z,32768
2016-08-24T06:39:50.665Z,32128
2016-08-24T06:40:51.376Z,34048
2016-08-24T06:41:50.693Z,34880
2016-08-24T06:42:50.693Z,34080
2016-08-24T06:43:51.397Z,33568
2016-08-24T06:44:50.717Z,35616
2016-08-24T06:45:51.409Z,34528
2016-08-24T06:46:51.417Z,34592
2016-08-24T06:47:51.429Z,36320
2016-08-24T06:48:51.428Z,37568
2016-08-24T06:49:51.446Z,36672
2016-08-24T06:50:51.448Z,36320
2016-08-24T06:51:50.746Z,34432
2016-08-24T06:52:50.053Z,34720
2016-08-24T06:53:51.466Z,35392
2016-08-24T06:54:51.481Z,35168
2016-08-24T06:55:51.478Z,36832
2016-08-24T06:56:51.486Z,35488
2016-08-24T06:57:51.494Z,35168
2016-08-24T06:58:50.806Z,36768
2016-08-24T06:59:50.806Z,32576
2016-08-24T07:00:51.522Z,30528
2016-08-24T07:01:51.521Z,31936
2016-08-24T07:02:51.534Z,31616
2016-08-24T07:03:50.837Z,31168
2016-08-24T07:04:51.545Z,29600
2016-08-24T07:05:50.857Z,25184
2016-08-24T07:06:51.562Z,27808
2016-08-24T07:07:51.569Z,26784
2016-08-24T07:08:50.874Z,22656
2016-08-24T07:09:51.197Z,22656
2016-08-24T07:10:51.602Z,21696
2016-08-24T07:11:51.605Z,22272
2016-08-24T07:12:51.605Z,22272
2016-08-24T07:13:50.909Z,22496
2016-08-24T07:14:51.622Z,23392
2016-08-24T07:15:51.638Z,25504
2016-08-24T07:16:51.645Z,26080
2016-08-24T07:17:51.649Z,28256
2016-08-24T07:18:50.253Z,29408
2016-08-24T07:19:51.665Z,30624
2016-08-24T07:20:51.670Z,30720
2016-08-24T07:21:50.983Z,30848
2016-08-24T07:22:50.981Z,37184
2016-08-24T07:23:50.998Z,37120
2016-08-24T07:24:51.002Z,34880
2016-08-24T07:25:51.721Z,36288
2016-08-24T07:26:51.727Z,35712
2016-08-24T07:27:51.732Z,35456
2016-08-24T07:28:51.742Z,36672
2016-08-24T07:29:51.746Z,37952
2016-08-24T07:30:51.755Z,37184
2016-08-24T07:31:51.810Z,36480
2016-08-24T07:32:51.771Z,36832
2016-08-24T07:33:50.578Z,36480
2016-08-24T07:34:51.102Z,38368
2016-08-24T07:35:51.094Z,39968
2016-08-24T07:36:51.807Z,38720
2016-08-24T07:37:51.110Z,37344
2016-08-24T07:38:51.822Z,36608
2016-08-24T07:39:51.840Z,36992
2016-08-24T07:40:51.138Z,39936
2016-08-24T07:41:51.146Z,37824
2016-08-24T07:42:51.155Z,37408
2016-08-24T07:43:51.895Z,37728
2016-08-24T07:44:51.875Z,38496
2016-08-24T07:45:51.883Z,37792
2016-08-24T07:46:51.198Z,38976
2016-08-24T07:47:51.910Z,39328
2016-08-24T07:48:51.206Z,38624
2016-08-24T07:49:51.918Z,39072
2016-08-24T07:50:51.937Z,41312
2016-08-24T07:51:51.240Z,39552
2016-08-24T07:52:51.243Z,40576
2016-08-24T07:53:51.250Z,41056
2016-08-24T07:54:51.963Z,40384
2016-08-24T07:55:51.975Z,41728
2016-08-24T07:56:51.987Z,41728
2016-08-24T07:57:51.999Z,42592
2016-08-24T07:58:51.302Z,44384
2016-08-24T07:59:52.006Z,44480
2016-08-24T08:00:50.615Z,43488
2016-08-24T08:01:52.035Z,44704
2016-08-24T08:02:51.342Z,39264
2016-08-24T08:03:51.339Z,26336
2016-08-24T08:04:51.375Z,12208
2016-08-24T08:05:52.063Z,7164
2016-08-24T08:06:52.071Z,6112
2016-08-24T08:07:52.083Z,5756
2016-08-24T08:08:52.091Z,5500
2016-08-24T08:09:52.099Z,5324
2016-08-24T08:10:52.107Z,5204
2016-08-24T08:11:51.433Z,5144
2016-08-24T08:12:52.128Z,5096
2016-08-24T08:13:52.143Z,5068
2016-08-24T08:14:51.439Z,5000
2016-08-24T08:15:52.151Z,4984
2016-08-24T08:16:52.167Z,5012
2016-08-24T08:17:51.468Z,4792
2016-08-24T08:18:50.772Z,4492
2016-08-24T08:19:52.191Z,4400
2016-08-24T08:20:50.792Z,4360
2016-08-24T08:21:51.508Z,4316
2016-08-24T08:22:50.815Z,4316
2016-08-24T08:23:50.816Z,4288
2016-08-24T08:24:51.528Z,4196
2016-08-24T08:25:52.248Z,4152
2016-08-24T08:26:52.275Z,4116
2016-08-24T08:27:52.260Z,4080
2016-08-24T08:28:51.568Z,4048
2016-08-24T08:29:52.275Z,4008
2016-08-24T08:30:52.284Z,3972
2016-08-24T08:31:52.300Z,3936
2016-08-24T08:32:52.304Z,3900
2016-08-24T08:33:51.609Z,3868
2016-08-24T08:34:51.612Z,3832
2016-08-24T08:35:51.629Z,3808
2016-08-24T08:36:51.629Z,3780
2016-08-24T08:37:51.640Z,3752
2016-08-24T08:38:52.353Z,3712
2016-08-24T08:39:52.360Z,3680
2016-08-24T08:40:52.372Z,3652
2016-08-24T08:41:51.673Z,3612
2016-08-24T08:42:51.697Z,3584
2016-08-24T08:43:51.689Z,3560
2016-08-24T08:44:52.409Z,3524
2016-08-24T08:45:52.409Z,3492
2016-08-24T08:46:52.425Z,3460
2016-08-24T08:47:51.725Z,3448
2016-08-24T08:48:52.441Z,3428
2016-08-24T08:49:51.032Z,3404
2016-08-24T08:50:52.453Z,3376
2016-08-24T08:51:52.453Z,3356
2016-08-24T08:52:52.461Z,3332
2016-08-24T08:53:52.470Z,3308
2016-08-24T08:54:52.493Z,3276
2016-08-24T08:55:52.486Z,3256
2016-08-24T08:56:52.492Z,3240
2016-08-24T08:57:51.806Z,3224
2016-08-24T08:58:52.521Z,3204
2016-08-24T08:59:52.513Z,3184
2016-08-24T09:00:51.145Z,3172
2016-08-24T09:01:51.829Z,3156
2016-08-24T09:02:52.537Z,3140
2016-08-24T09:03:51.842Z,3124
2016-08-24T09:04:52.558Z,3108
2016-08-24T09:05:52.558Z,3096
2016-08-24T09:06:51.878Z,3072
2016-08-24T09:07:51.865Z,3048
2016-08-24T09:08:52.578Z,3032
2016-08-24T09:09:52.586Z,3020
2016-08-24T09:10:52.590Z,2992
2016-08-24T09:11:51.893Z,2960
2016-08-24T09:12:52.606Z,2940
2016-08-24T09:13:52.614Z,2916
2016-08-24T09:14:51.930Z,2876
2016-08-24T09:15:52.627Z,2828
2016-08-24T09:16:51.930Z,2784
2016-08-24T09:17:51.942Z,2756
2016-08-24T09:18:51.987Z,2732
2016-08-24T09:19:51.947Z,2720
2016-08-24T09:20:52.659Z,2696
2016-08-24T09:21:52.671Z,2676
2016-08-24T09:22:52.118Z,2672
2016-08-24T09:23:52.675Z,2672
2016-08-24T09:24:51.990Z,2684
2016-08-24T09:25:51.983Z,2680
2016-08-24T09:26:52.694Z,2680
2016-08-24T09:27:52.698Z,2668
2016-08-24T09:28:52.707Z,2656
2016-08-24T09:29:52.015Z,2640
2016-08-24T09:30:52.719Z,2620
2016-08-24T09:31:52.739Z,2608
2016-08-24T09:32:52.726Z,2592
2016-08-24T09:33:51.386Z,2572
2016-08-24T09:34:52.739Z,2568
2016-08-24T09:35:52.043Z,2556
2016-08-24T09:36:52.750Z,2544
2016-08-24T09:37:52.051Z,2532
2016-08-24T09:38:52.763Z,2528
2016-08-24T09:39:52.771Z,2512
2016-08-24T09:40:52.075Z,2504
2016-08-24T09:41:52.779Z,2500
2016-08-24T09:42:52.784Z,2488
2016-08-24T09:43:52.083Z,2480
2016-08-24T09:44:52.802Z,2472
2016-08-24T09:45:52.296Z,2464
2016-08-24T09:46:52.104Z,2456
2016-08-24T09:47:52.815Z,2456
2016-08-24T09:48:52.815Z,2452
2016-08-24T09:49:51.419Z,2448
2016-08-24T09:50:52.831Z,2448
2016-08-24T09:51:52.832Z,2440
2016-08-24T09:52:52.136Z,2436
2016-08-24T09:53:52.843Z,2436
2016-08-24T09:54:52.145Z,2432
2016-08-24T09:55:52.852Z,2436
2016-08-24T09:56:52.858Z,2436
2016-08-24T09:57:52.156Z,2432
2016-08-24T09:58:52.867Z,2428
2016-08-24T09:59:52.892Z,2424
2016-08-24T10:00:52.877Z,2428
2016-08-24T10:01:52.176Z,2424
2016-08-24T10:02:52.888Z,2420
2016-08-24T10:03:52.899Z,2424
2016-08-24T10:04:52.191Z,2420
2016-08-24T10:05:52.899Z,2420
2016-08-24T10:06:52.200Z,2420
2016-08-24T10:07:52.907Z,2416
2016-08-24T10:08:52.912Z,2416
2016-08-24T10:09:52.917Z,2416
2016-08-24T10:10:52.215Z,2408
2016-08-24T10:11:52.932Z,2404
2016-08-24T10:12:52.236Z,2400
2016-08-24T10:13:52.935Z,2392
2016-08-24T10:14:52.284Z,2384
2016-08-24T10:15:51.536Z,2384
2016-08-24T10:16:52.947Z,2380
2016-08-24T10:17:52.260Z,2372
2016-08-24T10:18:52.959Z,2364
2016-08-24T10:19:52.260Z,2364
2016-08-24T10:20:52.272Z,2332
2016-08-24T10:21:52.972Z,2368
2016-08-24T10:22:52.276Z,2364
2016-08-24T10:23:52.981Z,2364
2016-08-24T10:24:52.984Z,2360
2016-08-24T10:25:52.991Z,2356
2016-08-24T10:26:52.992Z,2356
2016-08-24T10:27:53.000Z,2352
2016-08-24T10:28:51.592Z,2352
2016-08-24T10:29:52.305Z,2344
2016-08-24T10:30:52.308Z,2344
2016-08-24T10:31:53.016Z,2340
2016-08-24T10:32:53.021Z,2332
2016-08-24T10:33:52.321Z,2328
2016-08-24T10:34:53.029Z,2320
2016-08-24T10:35:52.328Z,2312
2016-08-24T10:36:53.036Z,2312
2016-08-24T10:37:52.340Z,2308
2016-08-24T10:38:52.348Z,2304
2016-08-24T10:39:53.048Z,2288
2016-08-24T10:40:53.057Z,2296
2016-08-24T10:41:52.357Z,2296
2016-08-24T10:42:53.060Z,2292
2016-08-24T10:43:53.065Z,2300
2016-08-24T10:44:53.069Z,2300
2016-08-24T10:45:51.665Z,2296
2016-08-24T10:46:53.077Z,2296
2016-08-24T10:47:53.085Z,2296
2016-08-24T10:48:52.380Z,2292
2016-08-24T10:49:53.097Z,2292
2016-08-24T10:50:52.392Z,2292
2016-08-24T10:51:53.096Z,2292
2016-08-24T10:52:53.107Z,2296
2016-08-24T10:53:52.401Z,2292
2016-08-24T10:54:53.109Z,2292
2016-08-24T10:55:53.112Z,2288
2016-08-24T10:56:52.416Z,2280
2016-08-24T10:57:52.417Z,2272
2016-08-24T10:58:52.421Z,2268
2016-08-24T10:59:53.129Z,2256
2016-08-24T11:00:52.432Z,2256
2016-08-24T11:01:52.434Z,2256
2016-08-24T11:02:52.448Z,2248
2016-08-24T11:03:53.146Z,2248
2016-08-24T11:04:53.166Z,2248
2016-08-24T11:05:53.154Z,2244
2016-08-24T11:06:52.454Z,2244
2016-08-24T11:07:53.161Z,2236
2016-08-24T11:08:53.166Z,2240
2016-08-24T11:09:53.165Z,2232
2016-08-24T11:10:53.174Z,2228
2016-08-24T11:11:51.777Z,2228
2016-08-24T11:12:51.770Z,2236
2016-08-24T11:13:53.181Z,2236
2016-08-24T11:14:53.187Z,2224
2016-08-24T11:15:52.486Z,2220
2016-08-24T11:16:53.214Z,2220
2016-08-24T11:17:52.498Z,2216
2016-08-24T11:18:53.218Z,2216
2016-08-24T11:19:52.506Z,2208
2016-08-24T11:20:53.222Z,2208
2016-08-24T11:21:53.214Z,2204
2016-08-24T11:22:53.219Z,2196
2016-08-24T11:23:53.229Z,2184
2016-08-24T11:24:53.225Z,2184
2016-08-24T11:25:53.230Z,2180
2016-08-24T11:26:53.234Z,2176
2016-08-24T11:27:53.234Z,2172
2016-08-24T11:28:53.242Z,2164
2016-08-24T11:29:52.541Z,2160
2016-08-24T11:30:52.554Z,2152
2016-08-24T11:31:51.846Z,2148
2016-08-24T11:32:53.255Z,2148
2016-08-24T11:33:53.358Z,2140
2016-08-24T11:34:52.562Z,2128
2016-08-24T11:35:53.283Z,2128
2016-08-24T11:36:52.567Z,2128
2016-08-24T11:37:51.168Z,2128
2016-08-24T11:38:53.274Z,2124
2016-08-24T11:39:52.575Z,2120
2016-08-24T11:40:52.579Z,2128
2016-08-24T11:41:52.587Z,2128
2016-08-24T11:42:52.591Z,2124
2016-08-24T11:43:53.303Z,2120
2016-08-24T11:44:53.322Z,2124
2016-08-24T11:45:53.299Z,2116
2016-08-24T11:46:52.606Z,2112
2016-08-24T11:47:53.306Z,2112
2016-08-24T11:48:52.611Z,2104
2016-08-24T11:49:53.320Z,2100
2016-08-24T11:50:52.615Z,2084
2016-08-24T11:51:52.619Z,2076
2016-08-24T11:52:51.918Z,2068
2016-08-24T11:53:53.332Z,2060
2016-08-24T11:54:53.336Z,2052
2016-08-24T11:55:53.339Z,2052
2016-08-24T11:56:52.639Z,2040
2016-08-24T11:57:53.351Z,2028
2016-08-24T11:58:51.234Z,2024
2016-08-24T11:59:53.363Z,2024
2016-08-24T12:00:53.355Z,2024
2016-08-24T12:01:52.655Z,2020
2016-08-24T12:02:53.364Z,2012
2016-08-24T12:03:53.362Z,2004
2016-08-24T12:04:52.667Z,1992
2016-08-24T12:05:53.371Z,1984
2016-08-24T12:06:51.272Z,1976
2016-08-24T12:07:53.391Z,1976
2016-08-24T12:08:52.679Z,1976
2016-08-24T12:09:53.399Z,1972
2016-08-24T12:10:53.396Z,1968
2016-08-24T12:11:53.391Z,1960
2016-08-24T12:12:53.399Z,1956
2016-08-24T12:13:52.695Z,1944
2016-08-24T12:14:53.403Z,1936
2016-08-24T12:15:52.715Z,1932
2016-08-24T12:16:52.704Z,1924
2016-08-24T12:17:53.412Z,1924
2016-08-24T12:18:53.416Z,1912
2016-08-24T12:19:52.016Z,1908
2016-08-24T12:20:53.424Z,1908
2016-08-24T12:21:53.427Z,1900
2016-08-24T12:22:52.725Z,1892
2016-08-24T12:23:52.728Z,1884
2016-08-24T12:24:53.435Z,1880
2016-08-24T12:25:53.440Z,1880
2016-08-24T12:26:53.445Z,1872
2016-08-24T12:27:53.448Z,1868
2016-08-24T12:28:53.452Z,1860
2016-08-24T12:29:52.760Z,1852
2016-08-24T12:30:52.752Z,1844
2016-08-24T12:31:52.053Z,1844
2016-08-24T12:32:53.468Z,1836
2016-08-24T12:33:52.759Z,1840
2016-08-24T12:34:53.469Z,1836
2016-08-24T12:35:52.069Z,1828
2016-08-24T12:36:52.069Z,1820
2016-08-24T12:37:53.489Z,1816
2016-08-24T12:38:53.485Z,1808
2016-08-24T12:39:53.489Z,1800
2016-08-24T12:40:53.496Z,1796
2016-08-24T12:41:53.493Z,1792
2016-08-24T12:42:52.793Z,1788
2016-08-24T12:43:53.500Z,1780
2016-08-24T12:44:53.513Z,1776
2016-08-24T12:45:52.809Z,1768
2016-08-24T12:46:52.820Z,1760
2016-08-24T12:47:53.513Z,1760
2016-08-24T12:48:53.517Z,1756
2016-08-24T12:49:52.829Z,1752
2016-08-24T12:50:53.520Z,1748
2016-08-24T12:51:53.524Z,1744
2016-08-24T12:52:53.529Z,1736
2016-08-24T12:53:52.833Z,1732
2016-08-24T12:54:52.833Z,1728
2016-08-24T12:55:53.542Z,1720
2016-08-24T12:56:53.541Z,1716
2016-08-24T12:57:53.545Z,1712
2016-08-24T12:58:53.558Z,1704
2016-08-24T12:59:52.853Z,1700
2016-08-24T13:00:53.553Z,1692
2016-08-24T13:01:53.557Z,1688
2016-08-24T13:02:53.561Z,1684
2016-08-24T13:03:52.871Z,1684
2016-08-24T13:04:52.865Z,1680
2016-08-24T13:05:53.573Z,1676
2016-08-24T13:06:53.570Z,1672
2016-08-24T13:07:53.585Z,1668
2016-08-24T13:08:53.590Z,1664
2016-08-24T13:09:53.593Z,1656
2016-08-24T13:10:53.590Z,1656
2016-08-24T13:11:53.078Z,1652
2016-08-24T13:12:52.890Z,1648
2016-08-24T13:13:52.905Z,1640
2016-08-24T13:14:53.601Z,1632
2016-08-24T13:15:52.910Z,1628
2016-08-24T13:16:52.906Z,1624
2016-08-24T13:17:52.906Z,1620
2016-08-24T13:18:52.909Z,1612
2016-08-24T13:19:53.618Z,1608
2016-08-24T13:20:53.626Z,1604
2016-08-24T13:21:53.621Z,1600
2016-08-24T13:22:53.639Z,1604
2016-08-24T13:23:52.926Z,1600
2016-08-24T13:24:53.630Z,1592
2016-08-24T13:25:52.929Z,1592
2016-08-24T13:26:52.942Z,1588
2016-08-24T13:27:53.642Z,1580
2016-08-24T13:28:53.649Z,1576
2016-08-24T13:29:52.950Z,1572
2016-08-24T13:30:53.651Z,1568
2016-08-24T13:31:53.653Z,1564
2016-08-24T13:32:53.658Z,1560
2016-08-24T13:33:53.762Z,1556
2016-08-24T13:34:53.662Z,1552
2016-08-24T13:35:53.666Z,1544
2016-08-24T13:36:53.669Z,1540
2016-08-24T13:37:53.675Z,1536
2016-08-24T13:38:53.675Z,1536
2016-08-24T13:39:52.974Z,1532